sensor_id;sensor_type;location;lat;lon;timestamp;temperature;humidity
56103;DHT22;41970;48.774;9.280;2023-08-01T00:02:17;19.90;99.90
56103;DHT22;41970;48.774;9.280;2023-08-01T00:04:43;19.90;99.90
56103;DHT22;41970;48.774;9.280;2023-08-01T00:07:09;19.90;99.90
56103;DHT22;41970;48.774;9.280;2023-08-01T00:09:35;20.00;99.90
56103;DHT22;41970;48.774;9.280;2023-08-01T00:12:00;19.90;99.90
56103;DHT22;41970;48.774;9.280;2023-08-01T00:14:26;20.00;99.90
56103;DHT22;41970;48.774;9.280;2023-08-01T00:16:52;20.00;99.90
56103;DHT22;41970;48.774;9.280;2023-08-01T00:19:18;20.00;99.90
56103;DHT22;41970;48.774;9.280;2023-08-01T00:21:44;20.00;99.90
56103;DHT22;41970;48.774;9.280;2023-08-01T00:24:10;19.90;99.90
56103;DHT22;41970;48.774;9.280;2023-08-01T00:26:36;20.00;99.90
56103;DHT22;41970;48.774;9.280;2023-08-01T00:29:01;20.00;99.90
56103;DHT22;41970;48.774;9.280;2023-08-01T00:31:27;20.00;99.90
56103;DHT22;41970;48.774;9.280;2023-08-01T00:33:53;19.90;99.90
56103;DHT22;41970;48.774;9.280;2023-08-01T00:36:19;19.80;99.90
56103;DHT22;41970;48.774;9.280;2023-08-01T00:38:45;19.80;99.90
56103;DHT22;41970;48.774;9.280;2023-08-01T00:41:12;19.80;99.90
56103;DHT22;41970;48.774;9.280;2023-08-01T00:43:38;19.70;99.90
56103;DHT22;41970;48.774;9.280;2023-08-01T00:46:05;19.60;99.90
56103;DHT22;41970;48.774;9.280;2023-08-01T00:48:32;19.70;99.90
56103;DHT22;41970;48.774;9.280;2023-08-01T00:51:00;19.60;99.90
56103;DHT22;41970;48.774;9.280;2023-08-01T00:53:26;19.30;99.90
56103;DHT22;41970;48.774;9.280;2023-08-01T00:55:53;19.40;99.90
56103;DHT22;41970;48.774;9.280;2023-08-01T00:58:19;19.50;99.90
56103;DHT22;41970;48.774;9.280;2023-08-01T01:00:46;19.60;99.90
56103;DHT22;41970;48.774;9.280;2023-08-01T01:03:14;19.70;99.90
56103;DHT22;41970;48.774;9.280;2023-08-01T01:05:47;19.70;99.90
56103;DHT22;41970;48.774;9.280;2023-08-01T01:08:14;19.60;99.90
56103;DHT22;41970;48.774;9.280;2023-08-01T01:10:41;19.50;99.90
56103;DHT22;41970;48.774;9.280;2023-08-01T01:13:07;19.40;99.90
56103;DHT22;41970;48.774;9.280;2023-08-01T01:15:36;19.40;99.90
56103;DHT22;41970;48.774;9.280;2023-08-01T01:18:01;19.30;99.90
56103;DHT22;41970;48.774;9.280;2023-08-01T01:20:33;19.50;99.90
56103;DHT22;41970;48.774;9.280;2023-08-01T01:23:00;19.60;99.90
56103;DHT22;41970;48.774;9.280;2023-08-01T01:25:28;19.50;99.90
56103;DHT22;41970;48.774;9.280;2023-08-01T01:27:54;19.40;99.90
56103;DHT22;41970;48.774;9.280;2023-08-01T01:30:21;19.40;99.90
56103;DHT22;41970;48.774;9.280;2023-08-01T01:32:48;19.40;99.90
56103;DHT22;41970;48.774;9.280;2023-08-01T01:35:14;19.40;99.90
56103;DHT22;41970;48.774;9.280;2023-08-01T01:37:40;19.50;99.90
56103;DHT22;41970;48.774;9.280;2023-08-01T01:40:07;19.50;99.90
56103;DHT22;41970;48.774;9.280;2023-08-01T01:42:32;19.50;99.90
56103;DHT22;41970;48.774;9.280;2023-08-01T01:44:58;19.60;99.90
56103;DHT22;41970;48.774;9.280;2023-08-01T01:47:24;19.60;99.90
56103;DHT22;41970;48.774;9.280;2023-08-01T01:49:50;19.60;99.90
56103;DHT22;41970;48.774;9.280;2023-08-01T01:52:16;19.70;99.90
56103;DHT22;41970;48.774;9.280;2023-08-01T01:54:41;19.60;99.90
56103;DHT22;41970;48.774;9.280;2023-08-01T01:57:07;19.50;99.90
56103;DHT22;41970;48.774;9.280;2023-08-01T01:59:33;19.60;99.90
56103;DHT22;41970;48.774;9.280;2023-08-01T02:01:59;19.70;99.90
56103;DHT22;41970;48.774;9.280;2023-08-01T02:04:25;19.70;99.90
56103;DHT22;41970;48.774;9.280;2023-08-01T02:06:51;19.70;99.90
56103;DHT22;41970;48.774;9.280;2023-08-01T02:09:19;19.60;99.90
56103;DHT22;41970;48.774;9.280;2023-08-01T02:11:44;19.50;99.90
56103;DHT22;41970;48.774;9.280;2023-08-01T02:14:10;19.60;99.90
56103;DHT22;41970;48.774;9.280;2023-08-01T02:16:36;19.80;99.90
56103;DHT22;41970;48.774;9.280;2023-08-01T02:19:02;19.80;99.90
56103;DHT22;41970;48.774;9.280;2023-08-01T02:21:28;19.70;99.90
56103;DHT22;41970;48.774;9.280;2023-08-01T02:23:53;19.70;99.90
56103;DHT22;41970;48.774;9.280;2023-08-01T02:26:19;19.60;99.90
56103;DHT22;41970;48.774;9.280;2023-08-01T02:28:46;19.70;99.90
56103;DHT22;41970;48.774;9.280;2023-08-01T02:31:12;19.60;99.90
56103;DHT22;41970;48.774;9.280;2023-08-01T02:33:38;19.50;99.90
56103;DHT22;41970;48.774;9.280;2023-08-01T02:36:04;19.40;99.90
56103;DHT22;41970;48.774;9.280;2023-08-01T02:38:30;19.30;99.90
56103;DHT22;41970;48.774;9.280;2023-08-01T02:40:56;19.50;99.90
56103;DHT22;41970;48.774;9.280;2023-08-01T02:43:22;19.50;99.90
56103;DHT22;41970;48.774;9.280;2023-08-01T02:45:47;19.50;99.90
56103;DHT22;41970;48.774;9.280;2023-08-01T02:48:13;19.50;99.90
56103;DHT22;41970;48.774;9.280;2023-08-01T02:50:39;19.40;99.90
56103;DHT22;41970;48.774;9.280;2023-08-01T02:53:05;19.50;99.90
56103;DHT22;41970;48.774;9.280;2023-08-01T02:55:31;19.40;99.90
56103;DHT22;41970;48.774;9.280;2023-08-01T02:57:57;19.50;99.90
56103;DHT22;41970;48.774;9.280;2023-08-01T03:00:23;19.50;99.90
56103;DHT22;41970;48.774;9.280;2023-08-01T03:02:49;19.60;99.90
56103;DHT22;41970;48.774;9.280;2023-08-01T03:05:15;19.70;99.90
56103;DHT22;41970;48.774;9.280;2023-08-01T03:07:41;19.80;99.90
56103;DHT22;41970;48.774;9.280;2023-08-01T03:10:07;19.70;99.90
56103;DHT22;41970;48.774;9.280;2023-08-01T03:12:32;19.70;99.90
56103;DHT22;41970;48.774;9.280;2023-08-01T03:14:58;19.70;99.90
56103;DHT22;41970;48.774;9.280;2023-08-01T03:17:24;19.70;99.90
56103;DHT22;41970;48.774;9.280;2023-08-01T03:19:50;19.70;99.90
56103;DHT22;41970;48.774;9.280;2023-08-01T03:22:16;19.80;99.90
56103;DHT22;41970;48.774;9.280;2023-08-01T03:24:42;19.80;99.90
56103;DHT22;41970;48.774;9.280;2023-08-01T03:27:08;19.80;99.90
56103;DHT22;41970;48.774;9.280;2023-08-01T03:29:34;19.80;99.90
56103;DHT22;41970;48.774;9.280;2023-08-01T03:32:00;19.80;99.90
56103;DHT22;41970;48.774;9.280;2023-08-01T03:34:26;19.90;99.90
56103;DHT22;41970;48.774;9.280;2023-08-01T03:36:52;19.90;99.90
56103;DHT22;41970;48.774;9.280;2023-08-01T03:39:18;20.00;99.90
56103;DHT22;41970;48.774;9.280;2023-08-01T03:41:45;19.80;99.90
56103;DHT22;41970;48.774;9.280;2023-08-01T03:44:11;19.80;99.90
56103;DHT22;41970;48.774;9.280;2023-08-01T03:46:37;19.80;99.90
56103;DHT22;41970;48.774;9.280;2023-08-01T03:49:03;19.90;99.90
56103;DHT22;41970;48.774;9.280;2023-08-01T03:51:29;19.80;99.90
56103;DHT22;41970;48.774;9.280;2023-08-01T03:53:54;19.70;99.90
56103;DHT22;41970;48.774;9.280;2023-08-01T03:56:20;19.60;99.90
56103;DHT22;41970;48.774;9.280;2023-08-01T03:58:46;19.70;99.90
56103;DHT22;41970;48.774;9.280;2023-08-01T04:01:12;19.80;99.90
56103;DHT22;41970;48.774;9.280;2023-08-01T04:03:38;19.80;99.90
56103;DHT22;41970;48.774;9.280;2023-08-01T04:06:04;19.80;99.90
56103;DHT22;41970;48.774;9.280;2023-08-01T04:08:30;19.80;99.90
56103;DHT22;41970;48.774;9.280;2023-08-01T04:10:56;19.80;99.90
56103;DHT22;41970;48.774;9.280;2023-08-01T04:13:22;19.80;99.90
56103;DHT22;41970;48.774;9.280;2023-08-01T04:15:48;19.80;99.90
56103;DHT22;41970;48.774;9.280;2023-08-01T04:18:14;19.80;99.90
56103;DHT22;41970;48.774;9.280;2023-08-01T04:20:40;19.80;99.90
56103;DHT22;41970;48.774;9.280;2023-08-01T04:23:06;19.70;99.90
56103;DHT22;41970;48.774;9.280;2023-08-01T04:25:32;19.40;99.90
56103;DHT22;41970;48.774;9.280;2023-08-01T04:27:57;19.30;99.90
56103;DHT22;41970;48.774;9.280;2023-08-01T04:30:23;19.40;99.90
56103;DHT22;41970;48.774;9.280;2023-08-01T04:32:49;19.30;99.90
56103;DHT22;41970;48.774;9.280;2023-08-01T04:35:15;19.30;99.90
56103;DHT22;41970;48.774;9.280;2023-08-01T04:37:41;19.40;99.90
56103;DHT22;41970;48.774;9.280;2023-08-01T04:40:07;19.30;99.90
56103;DHT22;41970;48.774;9.280;2023-08-01T04:42:33;19.30;99.90
56103;DHT22;41970;48.774;9.280;2023-08-01T04:44:59;19.30;99.90
56103;DHT22;41970;48.774;9.280;2023-08-01T04:47:26;19.40;99.90
56103;DHT22;41970;48.774;9.280;2023-08-01T04:49:52;19.40;99.90
56103;DHT22;41970;48.774;9.280;2023-08-01T04:52:18;19.40;99.90
56103;DHT22;41970;48.774;9.280;2023-08-01T04:54:44;19.50;99.90
56103;DHT22;41970;48.774;9.280;2023-08-01T04:57:09;19.50;99.90
56103;DHT22;41970;48.774;9.280;2023-08-01T04:59:35;19.60;99.90
56103;DHT22;41970;48.774;9.280;2023-08-01T05:02:01;19.60;99.90
56103;DHT22;41970;48.774;9.280;2023-08-01T05:04:27;19.70;99.90
56103;DHT22;41970;48.774;9.280;2023-08-01T05:06:53;19.60;99.90
56103;DHT22;41970;48.774;9.280;2023-08-01T05:09:19;19.70;99.90
56103;DHT22;41970;48.774;9.280;2023-08-01T05:11:44;19.70;99.90
56103;DHT22;41970;48.774;9.280;2023-08-01T05:14:10;19.80;99.90
56103;DHT22;41970;48.774;9.280;2023-08-01T05:16:36;19.80;99.90
56103;DHT22;41970;48.774;9.280;2023-08-01T05:19:02;20.00;99.90
56103;DHT22;41970;48.774;9.280;2023-08-01T05:21:28;20.00;99.90
56103;DHT22;41970;48.774;9.280;2023-08-01T05:23:54;20.00;99.90
56103;DHT22;41970;48.774;9.280;2023-08-01T05:26:19;20.00;99.90
56103;DHT22;41970;48.774;9.280;2023-08-01T05:28:45;19.90;99.90
56103;DHT22;41970;48.774;9.280;2023-08-01T05:31:11;20.00;99.90
56103;DHT22;41970;48.774;9.280;2023-08-01T05:33:37;20.00;99.90
56103;DHT22;41970;48.774;9.280;2023-08-01T05:36:03;20.00;99.90
56103;DHT22;41970;48.774;9.280;2023-08-01T05:38:29;20.10;99.90
56103;DHT22;41970;48.774;9.280;2023-08-01T05:40:55;20.20;99.90
56103;DHT22;41970;48.774;9.280;2023-08-01T05:43:20;20.20;99.90
56103;DHT22;41970;48.774;9.280;2023-08-01T05:45:46;20.20;99.90
56103;DHT22;41970;48.774;9.280;2023-08-01T05:48:15;20.20;99.90
56103;DHT22;41970;48.774;9.280;2023-08-01T05:50:41;20.20;99.90
56103;DHT22;41970;48.774;9.280;2023-08-01T05:53:07;20.20;99.90
56103;DHT22;41970;48.774;9.280;2023-08-01T05:55:33;20.20;99.90
56103;DHT22;41970;48.774;9.280;2023-08-01T05:57:59;20.20;99.90
56103;DHT22;41970;48.774;9.280;2023-08-01T06:00:25;20.30;99.90
56103;DHT22;41970;48.774;9.280;2023-08-01T06:02:51;20.30;99.90
56103;DHT22;41970;48.774;9.280;2023-08-01T06:05:17;20.40;99.90
56103;DHT22;41970;48.774;9.280;2023-08-01T06:07:43;20.40;99.90
56103;DHT22;41970;48.774;9.280;2023-08-01T06:10:09;20.40;99.90
56103;DHT22;41970;48.774;9.280;2023-08-01T06:12:35;20.40;99.90
56103;DHT22;41970;48.774;9.280;2023-08-01T06:15:01;20.50;99.90
56103;DHT22;41970;48.774;9.280;2023-08-01T06:17:27;20.50;99.90
56103;DHT22;41970;48.774;9.280;2023-08-01T06:19:53;20.40;99.90
56103;DHT22;41970;48.774;9.280;2023-08-01T06:22:20;20.50;99.90
56103;DHT22;41970;48.774;9.280;2023-08-01T06:24:46;20.50;99.90
56103;DHT22;41970;48.774;9.280;2023-08-01T06:27:11;20.50;99.90
56103;DHT22;41970;48.774;9.280;2023-08-01T06:29:38;20.50;99.90
56103;DHT22;41970;48.774;9.280;2023-08-01T06:32:04;20.50;99.90
56103;DHT22;41970;48.774;9.280;2023-08-01T06:34:30;20.50;99.90
56103;DHT22;41970;48.774;9.280;2023-08-01T06:36:56;20.40;99.90
56103;DHT22;41970;48.774;9.280;2023-08-01T06:39:22;20.30;99.90
56103;DHT22;41970;48.774;9.280;2023-08-01T06:41:47;20.20;99.90
56103;DHT22;41970;48.774;9.280;2023-08-01T06:44:13;20.00;99.90
56103;DHT22;41970;48.774;9.280;2023-08-01T06:46:39;19.90;99.90
56103;DHT22;41970;48.774;9.280;2023-08-01T06:49:05;19.80;99.90
56103;DHT22;41970;48.774;9.280;2023-08-01T06:51:31;19.70;99.90
56103;DHT22;41970;48.774;9.280;2023-08-01T06:53:57;19.70;99.90
56103;DHT22;41970;48.774;9.280;2023-08-01T06:56:23;19.70;99.90
56103;DHT22;41970;48.774;9.280;2023-08-01T06:58:49;19.70;99.90
56103;DHT22;41970;48.774;9.280;2023-08-01T07:01:15;19.60;99.90
56103;DHT22;41970;48.774;9.280;2023-08-01T07:03:41;19.70;99.90
56103;DHT22;41970;48.774;9.280;2023-08-01T07:06:07;19.60;99.90
56103;DHT22;41970;48.774;9.280;2023-08-01T07:08:33;19.40;99.90
56103;DHT22;41970;48.774;9.280;2023-08-01T07:10:59;19.50;99.90
56103;DHT22;41970;48.774;9.280;2023-08-01T07:13:25;19.50;99.90
56103;DHT22;41970;48.774;9.280;2023-08-01T07:15:51;19.50;99.90
56103;DHT22;41970;48.774;9.280;2023-08-01T07:18:17;19.50;99.90
56103;DHT22;41970;48.774;9.280;2023-08-01T07:20:44;19.40;99.90
56103;DHT22;41970;48.774;9.280;2023-08-01T07:23:10;19.40;99.90
56103;DHT22;41970;48.774;9.280;2023-08-01T07:25:36;19.50;99.90
56103;DHT22;41970;48.774;9.280;2023-08-01T07:28:02;19.40;99.90
56103;DHT22;41970;48.774;9.280;2023-08-01T07:30:28;19.30;99.90
56103;DHT22;41970;48.774;9.280;2023-08-01T07:32:54;19.40;99.90
56103;DHT22;41970;48.774;9.280;2023-08-01T07:35:20;19.40;99.90
56103;DHT22;41970;48.774;9.280;2023-08-01T07:37:46;19.50;99.90
56103;DHT22;41970;48.774;9.280;2023-08-01T07:40:11;19.50;99.90
56103;DHT22;41970;48.774;9.280;2023-08-01T07:42:37;19.30;99.90
56103;DHT22;41970;48.774;9.280;2023-08-01T07:45:03;19.30;99.90
56103;DHT22;41970;48.774;9.280;2023-08-01T07:47:29;19.30;99.90
56103;DHT22;41970;48.774;9.280;2023-08-01T07:49:55;19.30;99.90
56103;DHT22;41970;48.774;9.280;2023-08-01T07:52:21;19.30;99.90
56103;DHT22;41970;48.774;9.280;2023-08-01T07:54:47;19.30;99.90
56103;DHT22;41970;48.774;9.280;2023-08-01T07:57:13;19.20;99.90
56103;DHT22;41970;48.774;9.280;2023-08-01T07:59:39;19.10;99.90
56103;DHT22;41970;48.774;9.280;2023-08-01T08:02:05;19.00;99.90
56103;DHT22;41970;48.774;9.280;2023-08-01T08:04:31;18.90;99.90
56103;DHT22;41970;48.774;9.280;2023-08-01T08:06:57;18.80;99.90
56103;DHT22;41970;48.774;9.280;2023-08-01T08:09:26;18.80;99.90
56103;DHT22;41970;48.774;9.280;2023-08-01T08:11:52;18.80;99.90
56103;DHT22;41970;48.774;9.280;2023-08-01T08:14:18;18.70;99.90
56103;DHT22;41970;48.774;9.280;2023-08-01T08:16:46;18.70;99.90
56103;DHT22;41970;48.774;9.280;2023-08-01T08:19:11;18.70;99.90
56103;DHT22;41970;48.774;9.280;2023-08-01T08:21:37;18.60;99.90
56103;DHT22;41970;48.774;9.280;2023-08-01T08:24:03;18.60;99.90
56103;DHT22;41970;48.774;9.280;2023-08-01T08:26:29;18.60;99.90
56103;DHT22;41970;48.774;9.280;2023-08-01T08:28:56;18.70;99.90
56103;DHT22;41970;48.774;9.280;2023-08-01T08:31:22;18.70;99.90
56103;DHT22;41970;48.774;9.280;2023-08-01T08:33:48;18.70;99.90
56103;DHT22;41970;48.774;9.280;2023-08-01T08:36:14;18.70;99.90
56103;DHT22;41970;48.774;9.280;2023-08-01T08:38:40;18.70;99.90
56103;DHT22;41970;48.774;9.280;2023-08-01T08:41:09;18.70;99.90
56103;DHT22;41970;48.774;9.280;2023-08-01T08:43:36;18.60;99.90
56103;DHT22;41970;48.774;9.280;2023-08-01T08:46:04;18.70;99.90
56103;DHT22;41970;48.774;9.280;2023-08-01T08:48:30;18.70;99.90
56103;DHT22;41970;48.774;9.280;2023-08-01T08:51:00;18.70;99.90
56103;DHT22;41970;48.774;9.280;2023-08-01T08:53:27;18.80;99.90
56103;DHT22;41970;48.774;9.280;2023-08-01T08:55:54;18.80;99.90
56103;DHT22;41970;48.774;9.280;2023-08-01T08:58:20;18.90;99.90
56103;DHT22;41970;48.774;9.280;2023-08-01T09:00:47;18.90;99.90
56103;DHT22;41970;48.774;9.280;2023-08-01T09:03:14;19.10;99.90
56103;DHT22;41970;48.774;9.280;2023-08-01T09:06:07;19.20;99.90
56103;DHT22;41970;48.774;9.280;2023-08-01T09:08:36;19.20;99.90
56103;DHT22;41970;48.774;9.280;2023-08-01T09:11:04;19.20;99.90
56103;DHT22;41970;48.774;9.280;2023-08-01T09:13:31;19.20;99.90
56103;DHT22;41970;48.774;9.280;2023-08-01T09:15:57;19.30;99.90
56103;DHT22;41970;48.774;9.280;2023-08-01T09:18:23;19.40;99.90
56103;DHT22;41970;48.774;9.280;2023-08-01T09:20:50;19.40;99.90
56103;DHT22;41970;48.774;9.280;2023-08-01T09:23:17;19.40;99.90
56103;DHT22;41970;48.774;9.280;2023-08-01T09:25:43;19.40;99.90
56103;DHT22;41970;48.774;9.280;2023-08-01T09:28:23;19.40;99.90
56103;DHT22;41970;48.774;9.280;2023-08-01T09:30:54;19.50;99.90
56103;DHT22;41970;48.774;9.280;2023-08-01T09:33:23;19.50;99.90
56103;DHT22;41970;48.774;9.280;2023-08-01T09:35:51;19.50;99.90
56103;DHT22;41970;48.774;9.280;2023-08-01T09:38:17;19.50;99.90
56103;DHT22;41970;48.774;9.280;2023-08-01T09:40:44;19.50;99.90
56103;DHT22;41970;48.774;9.280;2023-08-01T09:43:11;19.50;99.90
56103;DHT22;41970;48.774;9.280;2023-08-01T09:45:48;19.50;99.90
56103;DHT22;41970;48.774;9.280;2023-08-01T09:48:28;19.60;99.90
56103;DHT22;41970;48.774;9.280;2023-08-01T09:51:14;19.70;99.90
56103;DHT22;41970;48.774;9.280;2023-08-01T09:53:52;19.70;99.90
56103;DHT22;41970;48.774;9.280;2023-08-01T09:56:23;19.70;99.90
56103;DHT22;41970;48.774;9.280;2023-08-01T09:58:52;19.80;99.90
56103;DHT22;41970;48.774;9.280;2023-08-01T10:01:20;19.90;99.90
56103;DHT22;41970;48.774;9.280;2023-08-01T10:03:51;19.90;99.90
56103;DHT22;41970;48.774;9.280;2023-08-01T10:06:22;19.90;99.90
56103;DHT22;41970;48.774;9.280;2023-08-01T10:08:50;20.00;99.90
56103;DHT22;41970;48.774;9.280;2023-08-01T10:11:18;20.10;99.90
56103;DHT22;41970;48.774;9.280;2023-08-01T10:13:44;20.10;99.90
56103;DHT22;41970;48.774;9.280;2023-08-01T10:16:11;20.20;99.90
56103;DHT22;41970;48.774;9.280;2023-08-01T10:18:38;20.10;99.90
56103;DHT22;41970;48.774;9.280;2023-08-01T10:21:11;20.10;99.90
56103;DHT22;41970;48.774;9.280;2023-08-01T10:23:38;20.20;99.90
56103;DHT22;41970;48.774;9.280;2023-08-01T10:26:07;20.20;99.90
56103;DHT22;41970;48.774;9.280;2023-08-01T10:28:35;20.20;99.90
56103;DHT22;41970;48.774;9.280;2023-08-01T10:31:14;20.10;99.90
56103;DHT22;41970;48.774;9.280;2023-08-01T10:33:45;20.20;99.90
56103;DHT22;41970;48.774;9.280;2023-08-01T10:36:22;20.30;99.90
56103;DHT22;41970;48.774;9.280;2023-08-01T10:38:57;20.30;99.90
56103;DHT22;41970;48.774;9.280;2023-08-01T10:41:27;20.40;99.90
56103;DHT22;41970;48.774;9.280;2023-08-01T10:44:15;20.40;99.90
56103;DHT22;41970;48.774;9.280;2023-08-01T10:46:59;20.50;99.90
56103;DHT22;41970;48.774;9.280;2023-08-01T10:49:42;20.60;99.90
56103;DHT22;41970;48.774;9.280;2023-08-01T10:52:20;20.60;99.90
56103;DHT22;41970;48.774;9.280;2023-08-01T10:55:02;20.70;99.90
56103;DHT22;41970;48.774;9.280;2023-08-01T10:57:30;20.80;99.90
56103;DHT22;41970;48.774;9.280;2023-08-01T10:59:57;21.00;99.90
56103;DHT22;41970;48.774;9.280;2023-08-01T11:02:27;21.20;99.90
56103;DHT22;41970;48.774;9.280;2023-08-01T11:05:07;21.20;99.90
56103;DHT22;41970;48.774;9.280;2023-08-01T11:07:36;21.10;99.90
56103;DHT22;41970;48.774;9.280;2023-08-01T11:10:04;20.90;99.90
56103;DHT22;41970;48.774;9.280;2023-08-01T11:12:38;20.80;99.90
56103;DHT22;41970;48.774;9.280;2023-08-01T11:15:09;20.70;99.90
56103;DHT22;41970;48.774;9.280;2023-08-01T11:17:39;20.60;99.90
56103;DHT22;41970;48.774;9.280;2023-08-01T11:20:11;20.70;99.90
56103;DHT22;41970;48.774;9.280;2023-08-01T11:22:38;20.80;99.90
56103;DHT22;41970;48.774;9.280;2023-08-01T11:25:14;20.90;99.90
56103;DHT22;41970;48.774;9.280;2023-08-01T11:27:40;21.00;99.90
56103;DHT22;41970;48.774;9.280;2023-08-01T11:30:06;21.10;99.90
56103;DHT22;41970;48.774;9.280;2023-08-01T11:32:33;21.20;99.90
56103;DHT22;41970;48.774;9.280;2023-08-01T11:35:01;21.30;99.90
56103;DHT22;41970;48.774;9.280;2023-08-01T11:37:28;21.30;99.90
56103;DHT22;41970;48.774;9.280;2023-08-01T11:39:54;21.30;99.90
56103;DHT22;41970;48.774;9.280;2023-08-01T11:42:21;21.40;99.90
56103;DHT22;41970;48.774;9.280;2023-08-01T11:44:46;21.40;99.90
56103;DHT22;41970;48.774;9.280;2023-08-01T11:47:17;21.40;99.90
56103;DHT22;41970;48.774;9.280;2023-08-01T11:49:50;21.50;99.90
56103;DHT22;41970;48.774;9.280;2023-08-01T11:52:27;21.60;99.90
56103;DHT22;41970;48.774;9.280;2023-08-01T11:54:53;21.60;99.90
56103;DHT22;41970;48.774;9.280;2023-08-01T11:57:23;21.70;99.90
56103;DHT22;41970;48.774;9.280;2023-08-01T11:59:51;21.70;99.90
56103;DHT22;41970;48.774;9.280;2023-08-01T12:02:24;21.70;99.90
56103;DHT22;41970;48.774;9.280;2023-08-01T12:04:51;21.70;99.90
56103;DHT22;41970;48.774;9.280;2023-08-01T12:07:18;21.60;99.90
56103;DHT22;41970;48.774;9.280;2023-08-01T12:09:54;21.60;99.90
56103;DHT22;41970;48.774;9.280;2023-08-01T12:12:20;21.70;99.90
56103;DHT22;41970;48.774;9.280;2023-08-01T12:14:46;21.80;99.90
56103;DHT22;41970;48.774;9.280;2023-08-01T12:17:12;21.90;99.90
56103;DHT22;41970;48.774;9.280;2023-08-01T12:19:38;21.80;99.90
56103;DHT22;41970;48.774;9.280;2023-08-01T12:22:04;21.80;99.90
56103;DHT22;41970;48.774;9.280;2023-08-01T12:24:29;21.70;99.90
56103;DHT22;41970;48.774;9.280;2023-08-01T12:26:55;21.70;99.90
56103;DHT22;41970;48.774;9.280;2023-08-01T12:29:21;21.60;99.90
56103;DHT22;41970;48.774;9.280;2023-08-01T12:31:48;21.50;99.90
56103;DHT22;41970;48.774;9.280;2023-08-01T12:34:14;21.60;99.90
56103;DHT22;41970;48.774;9.280;2023-08-01T12:36:40;21.60;99.90
56103;DHT22;41970;48.774;9.280;2023-08-01T12:39:06;21.70;99.90
56103;DHT22;41970;48.774;9.280;2023-08-01T12:41:36;21.80;99.90
56103;DHT22;41970;48.774;9.280;2023-08-01T12:44:04;21.90;99.90
56103;DHT22;41970;48.774;9.280;2023-08-01T12:46:30;22.00;99.90
56103;DHT22;41970;48.774;9.280;2023-08-01T12:48:56;22.00;99.90
56103;DHT22;41970;48.774;9.280;2023-08-01T12:51:22;22.10;99.90
56103;DHT22;41970;48.774;9.280;2023-08-01T12:53:48;22.20;99.90
56103;DHT22;41970;48.774;9.280;2023-08-01T12:56:14;22.30;99.90
56103;DHT22;41970;48.774;9.280;2023-08-01T12:58:40;22.50;99.90
56103;DHT22;41970;48.774;9.280;2023-08-01T13:01:06;22.50;99.90
56103;DHT22;41970;48.774;9.280;2023-08-01T13:03:32;22.50;99.90
56103;DHT22;41970;48.774;9.280;2023-08-01T13:05:58;22.60;99.90
56103;DHT22;41970;48.774;9.280;2023-08-01T13:08:24;22.70;99.90
56103;DHT22;41970;48.774;9.280;2023-08-01T13:10:49;22.70;99.90
56103;DHT22;41970;48.774;9.280;2023-08-01T13:13:19;22.70;98.60
56103;DHT22;41970;48.774;9.280;2023-08-01T13:15:44;22.70;98.10
56103;DHT22;41970;48.774;9.280;2023-08-01T13:18:10;22.90;99.10
56103;DHT22;41970;48.774;9.280;2023-08-01T13:20:36;23.00;98.00
56103;DHT22;41970;48.774;9.280;2023-08-01T13:23:03;23.00;98.70
56103;DHT22;41970;48.774;9.280;2023-08-01T13:25:29;23.10;98.00
56103;DHT22;41970;48.774;9.280;2023-08-01T13:27:55;23.20;99.00
56103;DHT22;41970;48.774;9.280;2023-08-01T13:30:21;23.30;99.50
56103;DHT22;41970;48.774;9.280;2023-08-01T13:32:47;23.20;99.40
56103;DHT22;41970;48.774;9.280;2023-08-01T13:35:14;23.20;99.30
56103;DHT22;41970;48.774;9.280;2023-08-01T13:37:40;23.20;98.90
56103;DHT22;41970;48.774;9.280;2023-08-01T13:40:06;23.20;98.90
56103;DHT22;41970;48.774;9.280;2023-08-01T13:42:32;23.20;98.30
56103;DHT22;41970;48.774;9.280;2023-08-01T13:44:59;23.30;96.30
56103;DHT22;41970;48.774;9.280;2023-08-01T13:47:25;23.30;97.10
56103;DHT22;41970;48.774;9.280;2023-08-01T13:49:51;23.20;96.90
56103;DHT22;41970;48.774;9.280;2023-08-01T13:52:17;23.20;97.60
56103;DHT22;41970;48.774;9.280;2023-08-01T13:54:43;23.10;97.10
56103;DHT22;41970;48.774;9.280;2023-08-01T13:57:08;23.00;97.40
56103;DHT22;41970;48.774;9.280;2023-08-01T13:59:34;23.00;97.90
56103;DHT22;41970;48.774;9.280;2023-08-01T14:02:02;23.00;97.40
56103;DHT22;41970;48.774;9.280;2023-08-01T14:04:28;23.10;97.70
56103;DHT22;41970;48.774;9.280;2023-08-01T14:06:54;23.20;96.90
56103;DHT22;41970;48.774;9.280;2023-08-01T14:09:21;23.40;96.60
56103;DHT22;41970;48.774;9.280;2023-08-01T14:11:46;23.30;95.90
56103;DHT22;41970;48.774;9.280;2023-08-01T14:14:12;23.40;96.40
56103;DHT22;41970;48.774;9.280;2023-08-01T14:16:38;23.30;97.20
56103;DHT22;41970;48.774;9.280;2023-08-01T14:19:04;23.40;97.10
56103;DHT22;41970;48.774;9.280;2023-08-01T14:21:33;23.50;96.20
56103;DHT22;41970;48.774;9.280;2023-08-01T14:23:59;23.50;95.80
56103;DHT22;41970;48.774;9.280;2023-08-01T14:26:25;23.50;95.10
56103;DHT22;41970;48.774;9.280;2023-08-01T14:28:51;23.50;95.80
56103;DHT22;41970;48.774;9.280;2023-08-01T14:31:17;23.70;95.50
56103;DHT22;41970;48.774;9.280;2023-08-01T14:33:42;23.70;94.10
56103;DHT22;41970;48.774;9.280;2023-08-01T14:36:09;23.70;94.60
56103;DHT22;41970;48.774;9.280;2023-08-01T14:38:40;23.80;95.50
56103;DHT22;41970;48.774;9.280;2023-08-01T14:41:06;24.00;95.50
56103;DHT22;41970;48.774;9.280;2023-08-01T14:43:32;24.20;93.80
56103;DHT22;41970;48.774;9.280;2023-08-01T14:45:59;24.20;94.70
56103;DHT22;41970;48.774;9.280;2023-08-01T14:48:25;24.40;94.50
56103;DHT22;41970;48.774;9.280;2023-08-01T14:50:52;24.30;93.20
56103;DHT22;41970;48.774;9.280;2023-08-01T14:53:17;24.20;92.90
56103;DHT22;41970;48.774;9.280;2023-08-01T14:55:43;24.20;94.40
56103;DHT22;41970;48.774;9.280;2023-08-01T14:58:09;24.20;94.00
56103;DHT22;41970;48.774;9.280;2023-08-01T15:00:36;24.20;93.00
56103;DHT22;41970;48.774;9.280;2023-08-01T15:03:02;24.20;93.50
56103;DHT22;41970;48.774;9.280;2023-08-01T15:05:27;24.30;92.50
56103;DHT22;41970;48.774;9.280;2023-08-01T15:07:53;24.30;92.40
56103;DHT22;41970;48.774;9.280;2023-08-01T15:10:19;24.40;91.70
56103;DHT22;41970;48.774;9.280;2023-08-01T15:12:45;24.50;91.30
56103;DHT22;41970;48.774;9.280;2023-08-01T15:15:11;24.40;92.20
56103;DHT22;41970;48.774;9.280;2023-08-01T15:17:37;24.40;91.90
56103;DHT22;41970;48.774;9.280;2023-08-01T15:20:03;24.30;91.80
56103;DHT22;41970;48.774;9.280;2023-08-01T15:22:29;24.20;91.90
56103;DHT22;41970;48.774;9.280;2023-08-01T15:24:55;24.10;92.40
56103;DHT22;41970;48.774;9.280;2023-08-01T15:27:21;24.10;92.10
56103;DHT22;41970;48.774;9.280;2023-08-01T15:29:47;24.10;92.60